sensor_id;sensor_type;location;lat;lon;timestamp;temperature;humidity
36652;DHT22;53334;51.976;20.144;2023-07-31T00:00:58;25.30;52.70
36652;DHT22;53334;51.976;20.144;2023-07-31T00:03:31;25.30;52.20
36652;DHT22;53334;51.976;20.144;2023-07-31T00:06:05;25.30;52.20
36652;DHT22;53334;51.976;20.144;2023-07-31T00:08:38;25.30;52.20
36652;DHT22;53334;51.976;20.144;2023-07-31T00:11:11;25.30;52.30
36652;DHT22;53334;51.976;20.144;2023-07-31T00:13:44;25.30;52.30
36652;DHT22;53334;51.976;20.144;2023-07-31T00:16:19;25.30;52.40
36652;DHT22;53334;51.976;20.144;2023-07-31T00:18:52;25.30;52.50
36652;DHT22;53334;51.976;20.144;2023-07-31T00:21:26;25.30;52.60
36652;DHT22;53334;51.976;20.144;2023-07-31T00:23:59;25.30;52.70
36652;DHT22;53334;51.976;20.144;2023-07-31T00:26:32;25.30;52.80
36652;DHT22;53334;51.976;20.144;2023-07-31T00:29:06;25.30;52.80
36652;DHT22;53334;51.976;20.144;2023-07-31T00:31:40;25.30;52.90
36652;DHT22;53334;51.976;20.144;2023-07-31T00:34:14;25.40;53.00
36652;DHT22;53334;51.976;20.144;2023-07-31T00:36:47;25.40;53.60
36652;DHT22;53334;51.976;20.144;2023-07-31T00:39:21;25.40;53.00
36652;DHT22;53334;51.976;20.144;2023-07-31T00:41:54;25.40;53.00
36652;DHT22;53334;51.976;20.144;2023-07-31T00:44:28;25.40;53.00
36652;DHT22;53334;51.976;20.144;2023-07-31T00:47:02;25.40;53.00
36652;DHT22;53334;51.976;20.144;2023-07-31T00:49:36;25.40;53.10
36652;DHT22;53334;51.976;20.144;2023-07-31T00:52:09;25.40;53.10
36652;DHT22;53334;51.976;20.144;2023-07-31T00:54:43;25.40;53.10
36652;DHT22;53334;51.976;20.144;2023-07-31T00:57:16;25.40;53.70
36652;DHT22;53334;51.976;20.144;2023-07-31T00:59:49;25.40;53.20
36652;DHT22;53334;51.976;20.144;2023-07-31T01:02:24;25.40;53.20
36652;DHT22;53334;51.976;20.144;2023-07-31T01:04:58;25.40;53.20
36652;DHT22;53334;51.976;20.144;2023-07-31T01:07:38;25.40;53.30
36652;DHT22;53334;51.976;20.144;2023-07-31T01:10:18;25.40;53.30
36652;DHT22;53334;51.976;20.144;2023-07-31T01:12:53;25.40;53.30
36652;DHT22;53334;51.976;20.144;2023-07-31T01:15:29;25.40;53.40
36652;DHT22;53334;51.976;20.144;2023-07-31T01:18:04;25.40;53.30
36652;DHT22;53334;51.976;20.144;2023-07-31T01:20:37;25.40;53.40
36652;DHT22;53334;51.976;20.144;2023-07-31T01:23:48;25.50;53.50
36652;DHT22;53334;51.976;20.144;2023-07-31T01:26:27;25.50;53.50
36652;DHT22;53334;51.976;20.144;2023-07-31T01:29:06;25.50;53.50
36652;DHT22;53334;51.976;20.144;2023-07-31T01:31:42;25.50;53.50
36652;DHT22;53334;51.976;20.144;2023-07-31T01:34:20;25.50;53.50
36652;DHT22;53334;51.976;20.144;2023-07-31T01:36:55;25.50;53.50
36652;DHT22;53334;51.976;20.144;2023-07-31T01:39:28;25.50;53.50
36652;DHT22;53334;51.976;20.144;2023-07-31T01:42:03;25.50;53.50
36652;DHT22;53334;51.976;20.144;2023-07-31T01:44:36;25.50;53.60
36652;DHT22;53334;51.976;20.144;2023-07-31T01:47:10;25.50;53.60
36652;DHT22;53334;51.976;20.144;2023-07-31T01:49:43;25.50;53.60
36652;DHT22;53334;51.976;20.144;2023-07-31T01:52:16;25.50;53.70
36652;DHT22;53334;51.976;20.144;2023-07-31T01:54:50;25.50;53.70
36652;DHT22;53334;51.976;20.144;2023-07-31T01:57:24;25.50;53.70
36652;DHT22;53334;51.976;20.144;2023-07-31T01:59:57;25.50;53.70
36652;DHT22;53334;51.976;20.144;2023-07-31T02:02:31;25.50;53.80
36652;DHT22;53334;51.976;20.144;2023-07-31T02:05:06;25.50;53.80
36652;DHT22;53334;51.976;20.144;2023-07-31T02:07:39;25.50;53.90
36652;DHT22;53334;51.976;20.144;2023-07-31T02:10:12;25.50;53.90
36652;DHT22;53334;51.976;20.144;2023-07-31T02:12:47;25.50;53.90
36652;DHT22;53334;51.976;20.144;2023-07-31T02:15:20;25.50;53.90
36652;DHT22;53334;51.976;20.144;2023-07-31T02:17:53;25.50;53.90
36652;DHT22;53334;51.976;20.144;2023-07-31T02:20:27;25.50;53.90
36652;DHT22;53334;51.976;20.144;2023-07-31T02:23:00;25.50;53.90
36652;DHT22;53334;51.976;20.144;2023-07-31T02:25:34;25.50;53.90
36652;DHT22;53334;51.976;20.144;2023-07-31T02:28:08;25.50;53.90
36652;DHT22;53334;51.976;20.144;2023-07-31T02:30:44;25.50;53.90
36652;DHT22;53334;51.976;20.144;2023-07-31T02:33:18;25.50;54.00
36652;DHT22;53334;51.976;20.144;2023-07-31T02:35:51;25.50;54.00
36652;DHT22;53334;51.976;20.144;2023-07-31T02:38:27;25.50;54.00
36652;DHT22;53334;51.976;20.144;2023-07-31T02:41:00;25.50;54.00
36652;DHT22;53334;51.976;20.144;2023-07-31T02:43:34;25.50;54.00
36652;DHT22;53334;51.976;20.144;2023-07-31T02:46:08;25.50;54.00
36652;DHT22;53334;51.976;20.144;2023-07-31T02:48:41;25.50;54.10
36652;DHT22;53334;51.976;20.144;2023-07-31T02:51:14;25.50;54.00
36652;DHT22;53334;51.976;20.144;2023-07-31T02:53:47;25.50;54.10
36652;DHT22;53334;51.976;20.144;2023-07-31T02:56:21;25.50;54.10
36652;DHT22;53334;51.976;20.144;2023-07-31T02:58:56;25.50;54.10
36652;DHT22;53334;51.976;20.144;2023-07-31T03:01:29;25.50;54.10
36652;DHT22;53334;51.976;20.144;2023-07-31T03:04:03;25.50;54.10
36652;DHT22;53334;51.976;20.144;2023-07-31T03:06:36;25.50;54.10
36652;DHT22;53334;51.976;20.144;2023-07-31T03:09:10;25.50;54.10
36652;DHT22;53334;51.976;20.144;2023-07-31T03:11:43;25.50;54.10
36652;DHT22;53334;51.976;20.144;2023-07-31T03:14:18;25.50;54.10
36652;DHT22;53334;51.976;20.144;2023-07-31T03:16:51;25.50;54.10
36652;DHT22;53334;51.976;20.144;2023-07-31T03:19:25;25.50;54.10
36652;DHT22;53334;51.976;20.144;2023-07-31T03:21:58;25.60;54.10
36652;DHT22;53334;51.976;20.144;2023-07-31T03:24:33;25.60;54.20
36652;DHT22;53334;51.976;20.144;2023-07-31T03:27:07;25.60;54.20
36652;DHT22;53334;51.976;20.144;2023-07-31T03:29:42;25.60;54.20
36652;DHT22;53334;51.976;20.144;2023-07-31T03:32:15;25.60;54.20
36652;DHT22;53334;51.976;20.144;2023-07-31T03:34:49;25.60;54.20
36652;DHT22;53334;51.976;20.144;2023-07-31T03:37:22;25.60;54.20
36652;DHT22;53334;51.976;20.144;2023-07-31T03:39:56;25.60;54.20
36652;DHT22;53334;51.976;20.144;2023-07-31T03:42:29;25.60;54.20
36652;DHT22;53334;51.976;20.144;2023-07-31T03:45:05;25.60;54.10
36652;DHT22;53334;51.976;20.144;2023-07-31T03:47:38;25.60;54.10
36652;DHT22;53334;51.976;20.144;2023-07-31T03:50:12;25.60;54.10
36652;DHT22;53334;51.976;20.144;2023-07-31T03:52:46;25.60;54.10
36652;DHT22;53334;51.976;20.144;2023-07-31T03:55:19;25.60;54.10
36652;DHT22;53334;51.976;20.144;2023-07-31T03:57:53;25.60;54.70
36652;DHT22;53334;51.976;20.144;2023-07-31T04:00:28;25.60;54.10
36652;DHT22;53334;51.976;20.144;2023-07-31T04:03:01;25.60;54.10
36652;DHT22;53334;51.976;20.144;2023-07-31T04:05:38;25.60;54.10
36652;DHT22;53334;51.976;20.144;2023-07-31T04:08:11;25.60;54.10
36652;DHT22;53334;51.976;20.144;2023-07-31T04:10:45;25.60;54.10
36652;DHT22;53334;51.976;20.144;2023-07-31T04:13:19;25.60;54.10
36652;DHT22;53334;51.976;20.144;2023-07-31T04:15:53;25.60;54.10
36652;DHT22;53334;51.976;20.144;2023-07-31T04:18:27;25.60;54.10
36652;DHT22;53334;51.976;20.144;2023-07-31T04:21:03;25.60;54.10
36652;DHT22;53334;51.976;20.144;2023-07-31T04:23:36;25.60;54.10
36652;DHT22;53334;51.976;20.144;2023-07-31T04:26:09;25.60;54.10
36652;DHT22;53334;51.976;20.144;2023-07-31T04:28:42;25.60;54.10
36652;DHT22;53334;51.976;20.144;2023-07-31T04:31:17;25.60;54.10
36652;DHT22;53334;51.976;20.144;2023-07-31T04:33:50;25.60;54.10
36652;DHT22;53334;51.976;20.144;2023-07-31T04:36:24;25.60;54.10
36652;DHT22;53334;51.976;20.144;2023-07-31T04:38:57;25.60;54.00
36652;DHT22;53334;51.976;20.144;2023-07-31T04:41:30;25.60;54.00
36652;DHT22;53334;51.976;20.144;2023-07-31T04:44:04;25.60;54.00
36652;DHT22;53334;51.976;20.144;2023-07-31T04:46:38;25.60;54.00
36652;DHT22;53334;51.976;20.144;2023-07-31T04:49:12;25.60;54.00
36652;DHT22;53334;51.976;20.144;2023-07-31T04:51:46;25.60;54.00
36652;DHT22;53334;51.976;20.144;2023-07-31T04:54:19;25.60;54.00
36652;DHT22;53334;51.976;20.144;2023-07-31T04:56:53;25.60;54.00
36652;DHT22;53334;51.976;20.144;2023-07-31T04:59:26;25.60;54.00
36652;DHT22;53334;51.976;20.144;2023-07-31T05:02:00;25.60;54.00
36652;DHT22;53334;51.976;20.144;2023-07-31T05:04:34;25.60;54.00
36652;DHT22;53334;51.976;20.144;2023-07-31T05:07:07;25.60;54.00
36652;DHT22;53334;51.976;20.144;2023-07-31T05:09:40;25.60;54.00
36652;DHT22;53334;51.976;20.144;2023-07-31T05:12:14;25.60;54.00
36652;DHT22;53334;51.976;20.144;2023-07-31T05:14:47;25.60;54.00
36652;DHT22;53334;51.976;20.144;2023-07-31T05:17:21;25.60;54.00
36652;DHT22;53334;51.976;20.144;2023-07-31T05:19:55;25.60;54.00
36652;DHT22;53334;51.976;20.144;2023-07-31T05:22:28;25.60;54.00
36652;DHT22;53334;51.976;20.144;2023-07-31T05:25:02;25.60;54.00
36652;DHT22;53334;51.976;20.144;2023-07-31T05:27:35;25.60;54.00
36652;DHT22;53334;51.976;20.144;2023-07-31T05:30:09;25.60;54.00
36652;DHT22;53334;51.976;20.144;2023-07-31T05:32:43;25.60;54.00
36652;DHT22;53334;51.976;20.144;2023-07-31T05:35:17;25.60;54.00
36652;DHT22;53334;51.976;20.144;2023-07-31T05:37:50;25.60;54.00
36652;DHT22;53334;51.976;20.144;2023-07-31T05:40:23;25.60;54.00
36652;DHT22;53334;51.976;20.144;2023-07-31T05:43:00;25.60;54.00
36652;DHT22;53334;51.976;20.144;2023-07-31T05:45:34;25.60;54.00
36652;DHT22;53334;51.976;20.144;2023-07-31T05:48:10;25.60;54.00
36652;DHT22;53334;51.976;20.144;2023-07-31T05:50:43;25.60;54.00
36652;DHT22;53334;51.976;20.144;2023-07-31T05:53:17;25.60;54.00
36652;DHT22;53334;51.976;20.144;2023-07-31T05:55:50;25.60;54.00
36652;DHT22;53334;51.976;20.144;2023-07-31T05:58:23;25.60;53.90
36652;DHT22;53334;51.976;20.144;2023-07-31T06:00:57;25.70;54.00
36652;DHT22;53334;51.976;20.144;2023-07-31T06:03:31;25.70;54.00
36652;DHT22;53334;51.976;20.144;2023-07-31T06:06:05;25.60;53.90
36652;DHT22;53334;51.976;20.144;2023-07-31T06:08:38;25.70;54.00
36652;DHT22;53334;51.976;20.144;2023-07-31T06:11:12;25.70;54.00
36652;DHT22;53334;51.976;20.144;2023-07-31T06:13:45;25.60;53.90
36652;DHT22;53334;51.976;20.144;2023-07-31T06:16:20;25.70;54.00
36652;DHT22;53334;51.976;20.144;2023-07-31T06:18:55;25.70;54.00
36652;DHT22;53334;51.976;20.144;2023-07-31T06:21:28;25.70;54.10
36652;DHT22;53334;51.976;20.144;2023-07-31T06:24:02;25.70;54.00
36652;DHT22;53334;51.976;20.144;2023-07-31T06:26:35;25.70;54.00
36652;DHT22;53334;51.976;20.144;2023-07-31T06:29:09;25.70;54.00
36652;DHT22;53334;51.976;20.144;2023-07-31T06:31:42;25.70;54.00
36652;DHT22;53334;51.976;20.144;2023-07-31T06:34:17;25.70;54.00
36652;DHT22;53334;51.976;20.144;2023-07-31T06:36:50;25.70;54.00
36652;DHT22;53334;51.976;20.144;2023-07-31T06:39:24;25.70;53.40
36652;DHT22;53334;51.976;20.144;2023-07-31T06:41:57;25.70;52.60
36652;DHT22;53334;51.976;20.144;2023-07-31T06:44:30;25.60;52.20
36652;DHT22;53334;51.976;20.144;2023-07-31T06:47:04;25.60;52.10
36652;DHT22;53334;51.976;20.144;2023-07-31T06:49:40;25.60;52.30
36652;DHT22;53334;51.976;20.144;2023-07-31T06:53:02;25.60;52.30
36652;DHT22;53334;51.976;20.144;2023-07-31T06:55:35;25.50;52.20
36652;DHT22;53334;51.976;20.144;2023-07-31T06:58:09;25.50;52.10
36652;DHT22;53334;51.976;20.144;2023-07-31T07:00:42;25.50;52.10
36652;DHT22;53334;51.976;20.144;2023-07-31T07:03:17;25.60;52.10
36652;DHT22;53334;51.976;20.144;2023-07-31T07:05:53;25.60;52.20
36652;DHT22;53334;51.976;20.144;2023-07-31T07:08:26;25.60;52.50
36652;DHT22;53334;51.976;20.144;2023-07-31T07:11:00;25.50;52.10
36652;DHT22;53334;51.976;20.144;2023-07-31T07:13:33;25.50;51.50
36652;DHT22;53334;51.976;20.144;2023-07-31T07:16:10;25.50;51.10
36652;DHT22;53334;51.976;20.144;2023-07-31T07:18:43;25.50;50.40
36652;DHT22;53334;51.976;20.144;2023-07-31T07:21:35;25.50;49.90
36652;DHT22;53334;51.976;20.144;2023-07-31T07:24:08;25.40;49.40
36652;DHT22;53334;51.976;20.144;2023-07-31T07:26:41;25.40;49.20
36652;DHT22;53334;51.976;20.144;2023-07-31T07:29:14;25.40;49.10
36652;DHT22;53334;51.976;20.144;2023-07-31T07:31:50;25.30;49.30
36652;DHT22;53334;51.976;20.144;2023-07-31T07:34:25;25.40;48.50
36652;DHT22;53334;51.976;20.144;2023-07-31T07:37:00;25.30;48.40
36652;DHT22;53334;51.976;20.144;2023-07-31T07:39:33;25.30;48.00
36652;DHT22;53334;51.976;20.144;2023-07-31T07:42:07;25.20;47.40
36652;DHT22;53334;51.976;20.144;2023-07-31T07:44:40;25.20;47.00
36652;DHT22;53334;51.976;20.144;2023-07-31T07:47:13;25.20;46.80
36652;DHT22;53334;51.976;20.144;2023-07-31T07:49:46;25.20;46.60
36652;DHT22;53334;51.976;20.144;2023-07-31T07:52:25;25.20;46.40
36652;DHT22;53334;51.976;20.144;2023-07-31T07:54:59;25.10;46.30
36652;DHT22;53334;51.976;20.144;2023-07-31T07:57:32;25.20;46.60
36652;DHT22;53334;51.976;20.144;2023-07-31T08:00:07;25.10;46.50
36652;DHT22;53334;51.976;20.144;2023-07-31T08:02:45;25.10;46.60
36652;DHT22;53334;51.976;20.144;2023-07-31T08:05:18;25.10;46.60
36652;DHT22;53334;51.976;20.144;2023-07-31T08:07:53;25.10;46.50
36652;DHT22;53334;51.976;20.144;2023-07-31T08:10:26;25.10;46.40
36652;DHT22;53334;51.976;20.144;2023-07-31T08:13:00;25.10;46.30
36652;DHT22;53334;51.976;20.144;2023-07-31T08:15:33;25.10;46.30
36652;DHT22;53334;51.976;20.144;2023-07-31T08:18:06;25.00;46.10
36652;DHT22;53334;51.976;20.144;2023-07-31T08:20:43;25.00;46.00
36652;DHT22;53334;51.976;20.144;2023-07-31T08:23:17;25.00;46.00
36652;DHT22;53334;51.976;20.144;2023-07-31T08:25:51;25.00;45.90
36652;DHT22;53334;51.976;20.144;2023-07-31T08:28:24;25.00;46.00
36652;DHT22;53334;51.976;20.144;2023-07-31T08:30:58;25.00;46.00
36652;DHT22;53334;51.976;20.144;2023-07-31T08:33:31;25.00;45.90
36652;DHT22;53334;51.976;20.144;2023-07-31T08:36:04;25.00;46.10
36652;DHT22;53334;51.976;20.144;2023-07-31T08:38:39;25.00;46.00
36652;DHT22;53334;51.976;20.144;2023-07-31T08:41:12;24.90;45.90
36652;DHT22;53334;51.976;20.144;2023-07-31T08:43:46;24.90;45.90
36652;DHT22;53334;51.976;20.144;2023-07-31T08:46:20;24.90;45.90
36652;DHT22;53334;51.976;20.144;2023-07-31T08:48:55;24.90;45.90
36652;DHT22;53334;51.976;20.144;2023-07-31T08:51:30;24.90;45.80
36652;DHT22;53334;51.976;20.144;2023-07-31T08:54:05;24.90;45.90
36652;DHT22;53334;51.976;20.144;2023-07-31T08:56:39;24.90;45.90
36652;DHT22;53334;51.976;20.144;2023-07-31T08:59:14;24.90;45.90
36652;DHT22;53334;51.976;20.144;2023-07-31T09:01:50;24.90;45.90
36652;DHT22;53334;51.976;20.144;2023-07-31T09:04:26;24.80;45.90
36652;DHT22;53334;51.976;20.144;2023-07-31T09:07:02;24.80;46.00
36652;DHT22;53334;51.976;20.144;2023-07-31T09:09:37;24.80;46.00
36652;DHT22;53334;51.976;20.144;2023-07-31T09:12:11;24.80;46.00
36652;DHT22;53334;51.976;20.144;2023-07-31T09:14:46;24.80;46.00
36652;DHT22;53334;51.976;20.144;2023-07-31T09:17:28;24.80;45.90
36652;DHT22;53334;51.976;20.144;2023-07-31T09:20:13;24.80;45.90
36652;DHT22;53334;51.976;20.144;2023-07-31T09:22:48;24.80;45.80
36652;DHT22;53334;51.976;20.144;2023-07-31T09:25:25;24.80;45.80
36652;DHT22;53334;51.976;20.144;2023-07-31T09:28:00;24.80;45.80
36652;DHT22;53334;51.976;20.144;2023-07-31T09:30:45;24.80;45.80
36652;DHT22;53334;51.976;20.144;2023-07-31T09:33:19;24.80;45.70
36652;DHT22;53334;51.976;20.144;2023-07-31T09:35:53;24.80;45.70
36652;DHT22;53334;51.976;20.144;2023-07-31T09:38:26;24.80;45.70
36652;DHT22;53334;51.976;20.144;2023-07-31T09:41:01;24.70;45.70
36652;DHT22;53334;51.976;20.144;2023-07-31T09:43:34;24.70;45.70
36652;DHT22;53334;51.976;20.144;2023-07-31T09:46:13;24.70;45.70
36652;DHT22;53334;51.976;20.144;2023-07-31T09:48:47;24.70;45.60
36652;DHT22;53334;51.976;20.144;2023-07-31T09:51:26;24.70;45.60
36652;DHT22;53334;51.976;20.144;2023-07-31T09:54:00;24.70;45.60
36652;DHT22;53334;51.976;20.144;2023-07-31T09:56:36;24.70;45.80
36652;DHT22;53334;51.976;20.144;2023-07-31T09:59:11;24.70;45.80
36652;DHT22;53334;51.976;20.144;2023-07-31T10:01:46;24.70;45.80
36652;DHT22;53334;51.976;20.144;2023-07-31T10:04:21;24.70;45.80
36652;DHT22;53334;51.976;20.144;2023-07-31T10:07:01;24.70;45.80
36652;DHT22;53334;51.976;20.144;2023-07-31T10:09:36;24.70;45.70
36652;DHT22;53334;51.976;20.144;2023-07-31T10:12:12;24.60;45.70
36652;DHT22;53334;51.976;20.144;2023-07-31T10:14:47;24.60;45.60
36652;DHT22;53334;51.976;20.144;2023-07-31T10:17:21;24.60;45.60
36652;DHT22;53334;51.976;20.144;2023-07-31T10:19:56;24.60;45.60
36652;DHT22;53334;51.976;20.144;2023-07-31T10:22:31;24.60;45.60
36652;DHT22;53334;51.976;20.144;2023-07-31T10:25:08;24.60;45.50
36652;DHT22;53334;51.976;20.144;2023-07-31T10:27:43;24.60;45.40
36652;DHT22;53334;51.976;20.144;2023-07-31T10:30:18;24.60;45.40
36652;DHT22;53334;51.976;20.144;2023-07-31T10:32:53;24.60;46.00
36652;DHT22;53334;51.976;20.144;2023-07-31T10:35:28;24.60;45.60
36652;DHT22;53334;51.976;20.144;2023-07-31T10:38:09;24.60;45.60
36652;DHT22;53334;51.976;20.144;2023-07-31T10:40:43;24.60;45.70
36652;DHT22;53334;51.976;20.144;2023-07-31T10:43:26;24.60;45.70
36652;DHT22;53334;51.976;20.144;2023-07-31T10:45:59;24.60;45.70
36652;DHT22;53334;51.976;20.144;2023-07-31T10:48:34;24.60;45.70
36652;DHT22;53334;51.976;20.144;2023-07-31T10:51:10;24.60;45.70
36652;DHT22;53334;51.976;20.144;2023-07-31T10:53:44;24.60;45.60
36652;DHT22;53334;51.976;20.144;2023-07-31T10:56:17;24.60;45.60
36652;DHT22;53334;51.976;20.144;2023-07-31T10:59:01;24.60;45.60
36652;DHT22;53334;51.976;20.144;2023-07-31T11:01:51;24.50;45.60
36652;DHT22;53334;51.976;20.144;2023-07-31T11:04:26;24.50;45.60
36652;DHT22;53334;51.976;20.144;2023-07-31T11:07:00;24.50;45.70
36652;DHT22;53334;51.976;20.144;2023-07-31T11:09:35;24.50;45.70
36652;DHT22;53334;51.976;20.144;2023-07-31T11:12:08;24.50;45.70
36652;DHT22;53334;51.976;20.144;2023-07-31T11:14:43;24.50;45.70
36652;DHT22;53334;51.976;20.144;2023-07-31T11:17:17;24.50;45.80
36652;DHT22;53334;51.976;20.144;2023-07-31T11:19:51;24.50;45.80
36652;DHT22;53334;51.976;20.144;2023-07-31T11:22:24;24.50;45.80
36652;DHT22;53334;51.976;20.144;2023-07-31T11:24:58;24.50;45.80
36652;DHT22;53334;51.976;20.144;2023-07-31T11:27:38;24.50;45.90
36652;DHT22;53334;51.976;20.144;2023-07-31T11:30:13;24.50;45.90
36652;DHT22;53334;51.976;20.144;2023-07-31T11:32:46;24.50;45.80
36652;DHT22;53334;51.976;20.144;2023-07-31T11:35:19;24.40;45.80
36652;DHT22;53334;51.976;20.144;2023-07-31T11:37:52;24.40;45.80
36652;DHT22;53334;51.976;20.144;2023-07-31T11:40:26;24.40;45.80
36652;DHT22;53334;51.976;20.144;2023-07-31T11:43:04;24.40;45.80
36652;DHT22;53334;51.976;20.144;2023-07-31T11:45:40;24.40;45.80
36652;DHT22;53334;51.976;20.144;2023-07-31T11:48:19;24.40;45.80
36652;DHT22;53334;51.976;20.144;2023-07-31T11:50:53;24.40;45.70
36652;DHT22;53334;51.976;20.144;2023-07-31T11:53:29;24.40;45.80
36652;DHT22;53334;51.976;20.144;2023-07-31T11:56:05;24.40;46.10
36652;DHT22;53334;51.976;20.144;2023-07-31T11:58:41;24.40;46.10
36652;DHT22;53334;51.976;20.144;2023-07-31T12:01:18;24.40;46.10
36652;DHT22;53334;51.976;20.144;2023-07-31T12:03:53;24.50;46.30
36652;DHT22;53334;51.976;20.144;2023-07-31T12:06:33;24.50;46.80
36652;DHT22;53334;51.976;20.144;2023-07-31T12:09:06;24.50;46.10
36652;DHT22;53334;51.976;20.144;2023-07-31T12:11:43;24.60;46.10
36652;DHT22;53334;51.976;20.144;2023-07-31T12:14:20;24.60;46.00
36652;DHT22;53334;51.976;20.144;2023-07-31T12:16:58;24.60;46.00
36652;DHT22;53334;51.976;20.144;2023-07-31T12:19:31;24.60;45.90
36652;DHT22;53334;51.976;20.144;2023-07-31T12:22:11;24.70;45.90
36652;DHT22;53334;51.976;20.144;2023-07-31T12:24:45;24.70;45.80
36652;DHT22;53334;51.976;20.144;2023-07-31T12:27:18;24.70;45.80
36652;DHT22;53334;51.976;20.144;2023-07-31T12:29:54;24.70;45.80
36652;DHT22;53334;51.976;20.144;2023-07-31T12:32:30;24.80;45.80
36652;DHT22;53334;51.976;20.144;2023-07-31T12:35:07;24.80;45.70
36652;DHT22;53334;51.976;20.144;2023-07-31T12:37:40;24.80;45.70
36652;DHT22;53334;51.976;20.144;2023-07-31T12:40:13;24.80;45.70
36652;DHT22;53334;51.976;20.144;2023-07-31T12:42:54;24.80;45.80
36652;DHT22;53334;51.976;20.144;2023-07-31T12:45:27;24.80;45.80
36652;DHT22;53334;51.976;20.144;2023-07-31T12:48:02;24.80;45.70
36652;DHT22;53334;51.976;20.144;2023-07-31T12:50:36;24.80;45.60
36652;DHT22;53334;51.976;20.144;2023-07-31T12:53:10;24.80;45.50
36652;DHT22;53334;51.976;20.144;2023-07-31T12:55:43;24.80;45.50
36652;DHT22;53334;51.976;20.144;2023-07-31T12:58:17;24.80;45.50
36652;DHT22;53334;51.976;20.144;2023-07-31T13:00:50;24.80;45.40
36652;DHT22;53334;51.976;20.144;2023-07-31T13:03:25;24.80;45.30
36652;DHT22;53334;51.976;20.144;2023-07-31T13:05:58;24.80;45.40
36652;DHT22;53334;51.976;20.144;2023-07-31T13:08:32;24.80;45.60
36652;DHT22;53334;51.976;20.144;2023-07-31T13:11:05;24.80;45.60
36652;DHT22;53334;51.976;20.144;2023-07-31T13:13:38;24.80;45.60
36652;DHT22;53334;51.976;20.144;2023-07-31T13:16:12;24.80;45.60
36652;DHT22;53334;51.976;20.144;2023-07-31T13:18:46;24.80;45.60
36652;DHT22;53334;51.976;20.144;2023-07-31T13:21:19;24.80;45.60
36652;DHT22;53334;51.976;20.144;2023-07-31T13:23:54;24.80;45.60
36652;DHT22;53334;51.976;20.144;2023-07-31T13:26:29;24.80;45.50
36652;DHT22;53334;51.976;20.144;2023-07-31T13:29:03;24.80;45.30
36652;DHT22;53334;51.976;20.144;2023-07-31T13:31:36;24.80;45.20
36652;DHT22;53334;51.976;20.144;2023-07-31T13:34:11;24.90;45.30
36652;DHT22;53334;51.976;20.144;2023-07-31T13:36:44;24.90;45.40
36652;DHT22;53334;51.976;20.144;2023-07-31T13:39:18;24.90;45.40
36652;DHT22;53334;51.976;20.144;2023-07-31T13:41:51;24.90;45.40
36652;DHT22;53334;51.976;20.144;2023-07-31T13:44:24;24.90;45.50
36652;DHT22;53334;51.976;20.144;2023-07-31T13:46:58;24.90;45.50
36652;DHT22;53334;51.976;20.144;2023-07-31T13:49:32;24.90;45.50
36652;DHT22;53334;51.976;20.144;2023-07-31T13:52:06;25.00;45.50
36652;DHT22;53334;51.976;20.144;2023-07-31T13:54:40;25.00;45.50
36652;DHT22;53334;51.976;20.144;2023-07-31T13:57:15;24.90;45.50
36652;DHT22;53334;51.976;20.144;2023-07-31T13:59:48;25.00;45.50
36652;DHT22;53334;51.976;20.144;2023-07-31T14:02:21;25.00;45.60
36652;DHT22;53334;51.976;20.144;2023-07-31T14:04:56;25.00;45.70
36652;DHT22;53334;51.976;20.144;2023-07-31T14:07:29;25.00;45.90
36652;DHT22;53334;51.976;20.144;2023-07-31T14:10:02;25.00;46.00
36652;DHT22;53334;51.976;20.144;2023-07-31T14:12:36;25.00;45.90
36652;DHT22;53334;51.976;20.144;2023-07-31T14:15:14;25.10;45.80
36652;DHT22;53334;51.976;20.144;2023-07-31T14:17:47;25.00;45.70
36652;DHT22;53334;51.976;20.144;2023-07-31T14:20:35;25.00;45.90
36652;DHT22;53334;51.976;20.144;2023-07-31T14:23:08;25.10;46.10
36652;DHT22;53334;51.976;20.144;2023-07-31T14:25:41;25.10;45.90
36652;DHT22;53334;51.976;20.144;2023-07-31T14:28:15;25.10;45.90
36652;DHT22;53334;51.976;20.144;2023-07-31T14:30:48;25.10;45.80
36652;DHT22;53334;51.976;20.144;2023-07-31T14:33:21;25.20;45.80
36652;DHT22;53334;51.976;20.144;2023-07-31T14:35:56;25.10;45.80
36652;DHT22;53334;51.976;20.144;2023-07-31T14:38:29;25.10;45.70
36652;DHT22;53334;51.976;20.144;2023-07-31T14:41:02;25.20;45.80
36652;DHT22;53334;51.976;20.144;2023-07-31T14:43:36;25.20;45.90
36652;DHT22;53334;51.976;20.144;2023-07-31T14:46:09;25.20;45.90
36652;DHT22;53334;51.976;20.144;2023-07-31T14:48:42;25.20;46.00
36652;DHT22;53334;51.976;20.144;2023-07-31T14:51:17;25.20;46.00
36652;DHT22;53334;51.976;20.144;2023-07-31T14:53:50;25.20;46.10
36652;DHT22;53334;51.976;20.144;2023-07-31T14:56:23;25.20;46.10
36652;DHT22;53334;51.976;20.144;2023-07-31T14:58:58;25.20;46.20
36652;DHT22;53334;51.976;20.144;2023-07-31T15:01:31;25.20;46.20
36652;DHT22;53334;51.976;20.144;2023-07-31T15:04:05;25.20;46.30
36652;DHT22;53334;51.976;20.144;2023-07-31T15:06:39;25.20;46.30
36652;DHT22;53334;51.976;20.144;2023-07-31T15:09:13;25.20;46.40
36652;DHT22;53334;51.976;20.144;2023-07-31T15:11:47;25.30;46.50
36652;DHT22;53334;51.976;20.144;2023-07-31T15:14:20;25.30;46.50
36652;DHT22;53334;51.976;20.144;2023-07-31T15:16:53;25.30;46.60
36652;DHT22;53334;51.976;20.144;2023-07-31T15:19:27;25.30;46.60
36652;DHT22;53334;51.976;20.144;2023-07-31T15:22:03;25.30;46.70
36652;DHT22;53334;51.976;20.144;2023-07-31T15:24:36;25.30;46.80
36652;DHT22;53334;51.976;20.144;2023-07-31T15:27:10;25.30;46.80
36652;DHT22;53334;51.976;20.144;2023-07-31T15:29:43;25.30;46.90
36652;DHT22;53334;51.976;20.144;2023-07-31T15:32:16;25.30;46.90
36652;DHT22;53334;51.976;20.144;2023-07-31T15:34:50;25.30;46.90
36652;DHT22;53334;51.976;20.144;2023-07-31T15:37:24;25.30;47.00
36652;DHT22;53334;51.976;20.144;2023-07-31T15:39:58;25.30;47.00
36652;DHT22;53334;51.976;20.144;2023-07-31T15:42:31;25.30;47.10
36652;DHT22;53334;51.976;20.144;2023-07-31T15:45:09;25.40;47.20
36652;DHT22;53334;51.976;20.144;2023-07-31T15:47:43;25.40;47.20
36652;DHT22;53334;51.976;20.144;2023-07-31T15:50:16;25.40;47.20
36652;DHT22;53334;51.976;20.144;2023-07-31T15:52:51;25.40;47.30
36652;DHT22;53334;51.976;20.144;2023-07-31T15:55:24;25.40;47.30
36652;DHT22;53334;51.976;20.144;2023-07-31T15:57:58;25.40;47.30
36652;DHT22;53334;51.976;20.144;2023-07-31T16:00:32;25.40;47.40